createdAt,value
2019-02-28T00:00:10.570Z,35.00
2019-02-28T00:01:11.737Z,35.10
2019-02-28T00:02:10.598Z,33.90
2019-02-28T00:03:10.613Z,34.70
2019-02-28T00:04:10.618Z,33.30
2019-02-28T00:05:10.631Z,31.60
2019-02-28T00:06:12.613Z,33.30
2019-02-28T00:07:10.661Z,32.70
2019-02-28T00:08:10.670Z,32.60
2019-02-28T00:09:10.689Z,35.10
2019-02-28T00:10:10.700Z,34.20
2019-02-28T00:11:10.707Z,35.80
2019-02-28T00:12:13.652Z,33.10
2019-02-28T00:13:10.753Z,32.50
2019-02-28T00:14:10.752Z,35.70
2019-02-28T00:15:10.764Z,33.30
2019-02-28T00:16:10.769Z,38.30
2019-02-28T00:17:10.789Z,38.00
2019-02-28T00:18:10.794Z,37.30
2019-02-28T00:19:10.806Z,36.50
2019-02-28T00:20:10.821Z,37.40
2019-02-28T00:21:10.834Z,37.70
2019-02-28T00:22:11.395Z,36.60
2019-02-28T00:23:10.857Z,38.80
2019-02-28T00:24:10.872Z,38.30
2019-02-28T00:25:10.897Z,36.40
2019-02-28T00:26:11.618Z,35.10
2019-02-28T00:27:10.912Z,38.20
2019-02-28T00:28:10.925Z,34.30
2019-02-28T00:29:10.934Z,39.70
2019-02-28T00:30:10.942Z,35.60
2019-02-28T00:31:14.537Z,34.30
2019-02-28T00:32:10.974Z,34.70
2019-02-28T00:33:10.994Z,37.50
2019-02-28T00:34:11.020Z,35.60
2019-02-28T00:35:13.367Z,37.90
2019-02-28T00:36:11.023Z,36.50
2019-02-28T00:37:11.147Z,39.50
2019-02-28T00:38:11.054Z,37.20
2019-02-28T00:39:11.054Z,36.50
2019-02-28T00:40:11.085Z,35.50
2019-02-28T00:41:11.089Z,38.80
2019-02-28T00:42:11.103Z,40.50
2019-02-28T00:43:11.124Z,35.60
2019-02-28T00:44:11.122Z,38.80
2019-02-28T00:45:11.145Z,37.30
2019-02-28T00:46:11.152Z,35.40
2019-02-28T00:47:11.166Z,37.30
2019-02-28T00:48:11.165Z,36.50
2019-02-28T00:49:11.184Z,36.80
2019-02-28T00:50:11.190Z,36.30
2019-02-28T00:51:11.259Z,38.00
2019-02-28T00:52:11.282Z,34.50
2019-02-28T00:53:11.239Z,36.40
2019-02-28T00:54:11.247Z,33.90
2019-02-28T00:55:14.401Z,34.60
2019-02-28T00:56:11.266Z,34.70
2019-02-28T00:57:11.282Z,36.20
2019-02-28T00:58:11.290Z,37.00
2019-02-28T00:59:11.299Z,37.50
2019-02-28T01:00:11.312Z,35.70
2019-02-28T01:01:11.695Z,36.20
2019-02-28T01:02:11.345Z,35.30
2019-02-28T01:03:11.353Z,36.10
2019-02-28T01:04:11.367Z,38.80
2019-02-28T01:05:11.380Z,37.60
2019-02-28T01:06:11.386Z,40.40
2019-02-28T01:07:13.255Z,39.00
2019-02-28T01:08:11.427Z,37.40
2019-02-28T01:09:11.434Z,35.80
2019-02-28T01:10:11.437Z,36.20
2019-02-28T01:11:13.261Z,38.00
2019-02-28T01:12:11.549Z,37.70
2019-02-28T01:13:11.475Z,35.20
2019-02-28T01:14:11.494Z,38.50
2019-02-28T01:15:11.501Z,38.90
2019-02-28T01:16:11.514Z,38.70
2019-02-28T01:17:11.532Z,40.00
2019-02-28T01:18:11.536Z,41.30
2019-02-28T01:19:11.558Z,40.40
2019-02-28T01:20:14.896Z,37.10
2019-02-28T01:21:11.575Z,36.30
2019-02-28T01:22:11.588Z,37.80
2019-02-28T01:23:11.598Z,38.60
2019-02-28T01:24:11.616Z,38.40
2019-02-28T01:25:11.622Z,37.50
2019-02-28T01:26:12.411Z,38.20
2019-02-28T01:27:11.651Z,39.00
2019-02-28T01:28:11.659Z,40.80
2019-02-28T01:29:11.677Z,40.40
2019-02-28T01:30:11.693Z,40.40
2019-02-28T01:31:12.285Z,41.00
2019-02-28T01:32:15.248Z,40.50
2019-02-28T01:33:11.719Z,38.40
2019-02-28T01:34:11.729Z,40.90
2019-02-28T01:35:11.734Z,39.10
2019-02-28T01:36:12.263Z,40.20
2019-02-28T01:37:11.760Z,40.40
2019-02-28T01:38:11.780Z,40.20
2019-02-28T01:39:11.798Z,41.90
2019-02-28T01:40:11.802Z,42.90
2019-02-28T01:41:11.896Z,41.00
2019-02-28T01:42:11.831Z,40.50
2019-02-28T01:43:11.832Z,44.30
2019-02-28T01:44:11.849Z,41.00
2019-02-28T01:45:11.857Z,42.50
2019-02-28T01:46:14.437Z,42.70
2019-02-28T01:47:11.882Z,43.60
2019-02-28T01:48:11.897Z,42.00
2019-02-28T01:49:11.907Z,44.70
2019-02-28T01:50:11.932Z,44.40
2019-02-28T01:51:11.931Z,42.50
2019-02-28T01:52:11.940Z,43.30
2019-02-28T01:53:11.955Z,45.30
2019-02-28T01:54:11.966Z,41.90
2019-02-28T01:55:11.984Z,41.90
2019-02-28T01:56:12.003Z,45.30
2019-02-28T01:57:12.001Z,45.40
2019-02-28T01:58:16.420Z,47.70
2019-02-28T01:59:12.038Z,45.50
2019-02-28T02:00:12.043Z,41.80
2019-02-28T02:01:12.061Z,44.80
2019-02-28T02:02:12.066Z,44.60
2019-02-28T02:03:12.073Z,45.40
2019-02-28T02:04:13.142Z,43.50
2019-02-28T02:05:12.100Z,42.90
2019-02-28T02:06:12.110Z,46.70
2019-02-28T02:07:12.121Z,46.60
2019-02-28T02:08:12.135Z,45.80
2019-02-28T02:09:12.168Z,46.60
2019-02-28T02:10:12.159Z,43.80
2019-02-28T02:11:12.176Z,42.40
2019-02-28T02:12:12.187Z,48.90
2019-02-28T02:13:12.197Z,46.70
2019-02-28T02:14:12.204Z,41.80
2019-02-28T02:15:12.222Z,45.60
2019-02-28T02:16:12.239Z,43.30
2019-02-28T02:17:12.247Z,44.00
2019-02-28T02:18:12.253Z,42.90
2019-02-28T02:19:17.495Z,43.50
2019-02-28T02:20:12.276Z,47.70
2019-02-28T02:21:12.334Z,45.20
2019-02-28T02:22:12.303Z,46.90
2019-02-28T02:23:12.310Z,46.50
2019-02-28T02:24:12.331Z,45.00
2019-02-28T02:25:12.396Z,48.30
2019-02-28T02:26:12.346Z,45.80
2019-02-28T02:27:12.429Z,47.30
2019-02-28T02:28:12.373Z,47.30
2019-02-28T02:29:12.392Z,49.40
2019-02-28T02:30:15.218Z,47.60
2019-02-28T02:31:12.415Z,49.80
2019-02-28T02:32:12.428Z,48.90
2019-02-28T02:33:14.419Z,45.20
2019-02-28T02:34:12.441Z,45.70
2019-02-28T02:35:12.467Z,50.80
2019-02-28T02:36:16.272Z,46.20
2019-02-28T02:37:12.479Z,47.70
2019-02-28T02:38:12.491Z,46.50
2019-02-28T02:39:16.430Z,47.70
2019-02-28T02:40:12.542Z,48.70
2019-02-28T02:41:12.525Z,49.90
2019-02-28T02:42:12.543Z,52.20
2019-02-28T02:43:12.552Z,49.00
2019-02-28T02:44:12.560Z,48.80
2019-02-28T02:45:12.583Z,49.40
2019-02-28T02:46:19.737Z,50.10
2019-02-28T02:47:12.594Z,48.70
2019-02-28T02:48:12.615Z,51.40
2019-02-28T02:49:18.374Z,50.10
2019-02-28T02:50:12.638Z,47.60
2019-02-28T02:51:12.787Z,51.50
2019-02-28T02:52:12.657Z,47.40
2019-02-28T02:53:12.672Z,54.50
2019-02-28T02:54:18.114Z,48.60
2019-02-28T02:55:12.696Z,54.60
2019-02-28T02:56:12.701Z,53.30
2019-02-28T02:57:14.014Z,49.40
2019-02-28T02:58:12.725Z,53.70
2019-02-28T02:59:12.742Z,51.30
2019-02-28T03:00:13.829Z,48.20
2019-02-28T03:01:12.781Z,52.60
2019-02-28T03:02:13.250Z,56.50
2019-02-28T03:03:12.782Z,52.30
2019-02-28T03:04:21.748Z,57.40
2019-02-28T03:05:12.816Z,52.50
2019-02-28T03:06:14.331Z,53.20
2019-02-28T03:07:12.839Z,52.10
2019-02-28T03:08:12.871Z,48.40
2019-02-28T03:09:12.865Z,52.10
2019-02-28T03:10:17.645Z,56.00
2019-02-28T03:11:12.914Z,52.50
2019-02-28T03:12:12.886Z,54.70
2019-02-28T03:13:12.901Z,53.20
2019-02-28T03:14:16.513Z,54.70
2019-02-28T03:15:12.923Z,58.60
2019-02-28T03:16:12.938Z,54.40
2019-02-28T03:17:12.946Z,55.90
2019-02-28T03:18:13.038Z,57.10
2019-02-28T03:19:12.979Z,54.20
2019-02-28T03:20:12.980Z,54.10
2019-02-28T03:21:15.074Z,55.70
2019-02-28T03:22:13.004Z,58.20
2019-02-28T03:23:13.018Z,56.10
2019-02-28T03:24:15.194Z,54.80
2019-02-28T03:25:13.038Z,53.90
2019-02-28T03:26:13.051Z,60.20
2019-02-28T03:27:18.566Z,55.20
2019-02-28T03:28:14.035Z,57.00
2019-02-28T03:29:13.087Z,56.00
2019-02-28T03:30:26.361Z,53.60
2019-02-28T03:31:15.399Z,61.00
2019-02-28T03:32:13.166Z,55.10
2019-02-28T03:33:24.067Z,55.50
2019-02-28T03:34:14.252Z,55.20
2019-02-28T03:35:13.181Z,58.90
2019-02-28T03:36:15.929Z,53.10
2019-02-28T03:37:13.184Z,55.40
2019-02-28T03:38:13.188Z,54.50
2019-02-28T03:39:13.216Z,55.50
2019-02-28T03:40:13.222Z,57.20
2019-02-28T03:41:17.839Z,57.90
2019-02-28T03:42:13.243Z,53.10
2019-02-28T03:43:13.242Z,54.00
2019-02-28T03:44:20.102Z,56.40
2019-02-28T03:45:13.271Z,56.20
2019-02-28T03:46:13.285Z,54.10
2019-02-28T03:47:13.300Z,59.40
2019-02-28T03:48:13.315Z,56.70
2019-02-28T03:49:13.314Z,58.30
2019-02-28T03:50:13.371Z,56.20
2019-02-28T03:51:13.347Z,56.90
2019-02-28T03:52:13.353Z,58.80
2019-02-28T03:53:19.584Z,54.90
2019-02-28T03:54:13.373Z,57.20
2019-02-28T03:55:13.399Z,57.50
2019-02-28T03:56:14.854Z,60.70
2019-02-28T03:57:13.406Z,60.40
2019-02-28T03:58:13.428Z,55.80
2019-02-28T03:59:18.143Z,57.00
2019-02-28T04:00:13.532Z,54.70
2019-02-28T04:01:13.450Z,56.20
2019-02-28T04:02:20.807Z,58.70
2019-02-28T04:03:13.474Z,56.50
2019-02-28T04:04:13.485Z,57.50
2019-02-28T04:05:13.533Z,56.00
2019-02-28T04:06:13.607Z,57.40
2019-02-28T04:07:15.986Z,57.70
2019-02-28T04:08:13.529Z,58.00
2019-02-28T04:09:13.552Z,57.60
2019-02-28T04:10:16.763Z,56.30
2019-02-28T04:11:13.565Z,59.10
2019-02-28T04:12:13.578Z,58.00
2019-02-28T04:13:13.825Z,58.30
2019-02-28T04:14:13.605Z,58.20
2019-02-28T04:15:13.620Z,56.90
2019-02-28T04:16:13.636Z,57.80
2019-02-28T04:17:13.669Z,60.20
2019-02-28T04:18:13.646Z,59.10
2019-02-28T04:19:13.656Z,59.20
2019-02-28T04:20:13.678Z,57.70
2019-02-28T04:21:13.696Z,57.00
2019-02-28T04:22:13.690Z,59.20
2019-02-28T04:23:13.713Z,58.50
2019-02-28T04:24:14.116Z,58.40
2019-02-28T04:25:13.737Z,54.50
2019-02-28T04:26:13.756Z,59.40
2019-02-28T04:27:13.779Z,57.80
2019-02-28T04:28:18.552Z,60.00
2019-02-28T04:29:13.779Z,57.30
2019-02-28T04:30:13.781Z,56.80
2019-02-28T04:31:18.721Z,54.30
2019-02-28T04:32:13.812Z,58.60
2019-02-28T04:33:13.836Z,59.10
2019-02-28T04:34:14.451Z,58.00
2019-02-28T04:35:13.858Z,57.80
2019-02-28T04:36:13.862Z,60.80
2019-02-28T04:37:14.144Z,55.00
2019-02-28T04:38:13.916Z,65.00
2019-02-28T04:39:13.887Z,57.10
2019-02-28T04:40:13.897Z,58.80
2019-02-28T04:41:13.926Z,56.70
2019-02-28T04:42:13.916Z,63.40
2019-02-28T04:43:13.933Z,60.20
2019-02-28T04:44:15.427Z,56.70
2019-02-28T04:45:13.955Z,55.60
2019-02-28T04:46:13.965Z,60.90
2019-02-28T04:47:13.976Z,59.60
2019-02-28T04:48:14.696Z,62.10
2019-02-28T04:49:14.000Z,63.40
2019-02-28T04:50:14.015Z,60.70
2019-02-28T04:51:14.020Z,59.00
2019-02-28T04:52:14.031Z,58.80
2019-02-28T04:53:14.044Z,58.60
2019-02-28T04:54:14.068Z,59.80
2019-02-28T04:55:14.068Z,62.20
2019-02-28T04:56:14.092Z,61.90
2019-02-28T04:57:14.103Z,61.60
2019-02-28T04:58:14.102Z,61.10
2019-02-28T04:59:14.128Z,59.00
2019-02-28T05:00:14.125Z,61.30
2019-02-28T05:01:14.148Z,59.70
2019-02-28T05:02:14.144Z,59.20
2019-02-28T05:03:14.158Z,59.80
2019-02-28T05:04:14.171Z,62.70
2019-02-28T05:05:14.191Z,60.50
2019-02-28T05:06:14.202Z,62.90
2019-02-28T05:07:14.206Z,62.20
2019-02-28T05:08:14.232Z,59.20
2019-02-28T05:09:15.117Z,62.90
2019-02-28T05:10:14.273Z,62.90
2019-02-28T05:11:14.290Z,60.10
2019-02-28T05:12:14.343Z,60.40
2019-02-28T05:13:14.950Z,65.30
2019-02-28T05:14:14.282Z,61.10
2019-02-28T05:15:14.296Z,60.50
2019-02-28T05:16:14.305Z,60.40
2019-02-28T05:17:14.323Z,61.10
2019-02-28T05:18:14.328Z,62.90
2019-02-28T05:19:14.341Z,63.10
2019-02-28T05:20:14.351Z,63.00
2019-02-28T05:21:16.593Z,62.90
2019-02-28T05:22:14.382Z,65.30
2019-02-28T05:23:14.383Z,60.20
2019-02-28T05:24:14.400Z,64.60
2019-02-28T05:25:17.785Z,64.90
2019-02-28T05:26:14.446Z,66.70
2019-02-28T05:27:14.453Z,66.50
2019-02-28T05:28:14.452Z,63.40
2019-02-28T05:29:14.463Z,67.60
2019-02-28T05:30:17.865Z,62.00
2019-02-28T05:31:14.486Z,65.80
2019-02-28T05:32:14.586Z,64.00
2019-02-28T05:33:14.554Z,61.80
2019-02-28T05:34:16.764Z,63.20
2019-02-28T05:35:14.886Z,65.40
2019-02-28T05:36:14.758Z,64.80
2019-02-28T05:37:14.564Z,63.50
2019-02-28T05:38:14.554Z,66.10
2019-02-28T05:39:14.595Z,61.40
2019-02-28T05:40:15.014Z,61.80
2019-02-28T05:41:15.266Z,63.60
2019-02-28T05:42:14.602Z,63.30
2019-02-28T05:43:14.614Z,62.40
2019-02-28T05:44:14.629Z,65.00
2019-02-28T05:45:15.700Z,64.60
2019-02-28T05:46:14.660Z,65.20
2019-02-28T05:47:14.664Z,66.70
2019-02-28T05:48:14.689Z,63.80
2019-02-28T05:49:14.692Z,67.50
2019-02-28T05:50:16.690Z,65.00
2019-02-28T05:51:14.707Z,64.70
2019-02-28T05:52:14.721Z,67.80
2019-02-28T05:53:14.742Z,63.50
2019-02-28T05:54:16.892Z,62.80
2019-02-28T05:55:14.776Z,66.10
2019-02-28T05:56:14.812Z,67.30
2019-02-28T05:57:14.786Z,64.00
2019-02-28T05:58:17.568Z,67.40
2019-02-28T05:59:14.801Z,65.70
2019-02-28T06:00:14.819Z,66.30
2019-02-28T06:01:14.817Z,62.50
2019-02-28T06:02:14.843Z,68.60
2019-02-28T06:03:14.838Z,69.50
2019-02-28T06:04:14.852Z,65.40
2019-02-28T06:05:14.877Z,71.00
2019-02-28T06:06:17.319Z,63.50
2019-02-28T06:07:14.989Z,71.10
2019-02-28T06:08:14.904Z,64.60
2019-02-28T06:09:15.125Z,71.50
2019-02-28T06:10:15.008Z,71.70
2019-02-28T06:11:15.414Z,66.70
2019-02-28T06:12:14.955Z,63.20
2019-02-28T06:13:15.316Z,68.70
2019-02-28T06:14:14.987Z,67.50
2019-02-28T06:15:14.980Z,69.70
2019-02-28T06:16:15.006Z,70.10
2019-02-28T06:17:17.346Z,67.30
2019-02-28T06:18:15.024Z,71.80
2019-02-28T06:19:15.016Z,70.20
2019-02-28T06:20:16.957Z,72.00
2019-02-28T06:21:15.057Z,69.40
2019-02-28T06:22:15.050Z,64.00
2019-02-28T06:23:15.110Z,67.90
2019-02-28T06:24:15.073Z,64.00
2019-02-28T06:25:22.150Z,66.50
2019-02-28T06:26:15.093Z,67.60
2019-02-28T06:27:15.105Z,69.70
2019-02-28T06:28:15.739Z,70.50
2019-02-28T06:29:15.131Z,71.40
2019-02-28T06:30:15.155Z,65.40
2019-02-28T06:31:15.292Z,73.70
2019-02-28T06:32:15.161Z,68.60
2019-02-28T06:33:15.187Z,68.90
2019-02-28T06:34:15.186Z,70.50
2019-02-28T06:35:17.577Z,64.00
2019-02-28T06:36:15.205Z,76.30
2019-02-28T06:37:15.242Z,70.40
2019-02-28T06:38:16.227Z,70.40
2019-02-28T06:39:17.445Z,69.50
2019-02-28T06:40:15.245Z,72.30
2019-02-28T06:41:15.324Z,68.40
2019-02-28T06:42:15.352Z,68.10
2019-02-28T06:43:18.681Z,72.80
2019-02-28T06:44:15.308Z,75.20
2019-02-28T06:45:15.305Z,72.70
2019-02-28T06:46:15.381Z,71.40
2019-02-28T06:47:15.342Z,70.20
2019-02-28T06:48:15.337Z,75.30
2019-02-28T06:49:15.361Z,69.80
2019-02-28T06:50:15.376Z,73.50
2019-02-28T06:51:16.755Z,74.50
2019-02-28T06:52:15.384Z,76.30
2019-02-28T06:53:15.397Z,75.00
2019-02-28T06:54:15.400Z,76.80
2019-02-28T06:55:15.623Z,79.50
2019-02-28T06:56:16.439Z,76.30
2019-02-28T06:57:15.442Z,74.80
2019-02-28T06:58:15.506Z,75.50
2019-02-28T06:59:15.464Z,75.30
2019-02-28T07:00:15.536Z,77.40
2019-02-28T07:01:15.569Z,75.00
2019-02-28T07:02:15.492Z,78.60
2019-02-28T07:03:15.507Z,74.90
2019-02-28T07:04:15.531Z,74.60
2019-02-28T07:05:15.533Z,73.00
2019-02-28T07:06:16.587Z,72.00
2019-02-28T07:07:15.567Z,80.80
2019-02-28T07:08:15.584Z,75.70
2019-02-28T07:09:15.604Z,77.70
2019-02-28T07:10:15.603Z,76.40
2019-02-28T07:11:15.606Z,77.40
2019-02-28T07:12:15.650Z,78.70
2019-02-28T07:13:15.620Z,72.70
2019-02-28T07:14:15.676Z,76.10
2019-02-28T07:15:15.656Z,73.50
2019-02-28T07:16:15.687Z,75.80
2019-02-28T07:17:15.698Z,74.60
2019-02-28T07:18:18.913Z,80.20
2019-02-28T07:19:15.691Z,76.20
2019-02-28T07:20:15.705Z,74.10
2019-02-28T07:21:16.273Z,73.20
2019-02-28T07:22:19.273Z,77.60
2019-02-28T07:23:15.830Z,74.20
2019-02-28T07:24:15.771Z,72.40
2019-02-28T07:25:15.747Z,77.60
2019-02-28T07:26:18.715Z,76.40
2019-02-28T07:27:15.777Z,81.60
2019-02-28T07:28:15.786Z,82.30
2019-02-28T07:29:15.805Z,75.00
2019-02-28T07:30:18.784Z,76.90
2019-02-28T07:31:15.822Z,77.50
2019-02-28T07:32:15.865Z,80.30
2019-02-28T07:33:15.850Z,79.80
2019-02-28T07:34:19.295Z,78.80
2019-02-28T07:35:15.864Z,82.30
2019-02-28T07:36:16.045Z,85.30
2019-02-28T07:37:18.570Z,76.50
2019-02-28T07:38:15.892Z,79.90
2019-02-28T07:39:15.906Z,80.90
2019-02-28T07:40:17.056Z,77.80
2019-02-28T07:41:15.944Z,83.50
2019-02-28T07:42:15.939Z,78.30
2019-02-28T07:43:15.956Z,78.70
2019-02-28T07:44:21.249Z,81.80
2019-02-28T07:45:16.213Z,84.70
2019-02-28T07:46:15.994Z,80.50
2019-02-28T07:47:17.352Z,81.80
2019-02-28T07:48:16.075Z,77.60
2019-02-28T07:49:16.024Z,76.70
2019-02-28T07:50:16.046Z,77.00
2019-02-28T07:51:18.493Z,80.30
2019-02-28T07:52:16.052Z,86.70
2019-02-28T07:53:16.075Z,76.20
2019-02-28T07:54:16.695Z,74.50
2019-02-28T07:55:16.085Z,76.80
2019-02-28T07:56:16.108Z,80.10
2019-02-28T07:57:17.252Z,81.40
2019-02-28T07:58:16.116Z,81.20
2019-02-28T07:59:16.221Z,79.30
2019-02-28T08:00:18.258Z,77.80
2019-02-28T08:01:18.321Z,81.70
2019-02-28T08:02:16.217Z,78.10
2019-02-28T08:03:16.191Z,78.30
2019-02-28T08:04:18.550Z,80.00
2019-02-28T08:05:16.233Z,76.80
2019-02-28T08:06:16.326Z,78.90
2019-02-28T08:07:16.234Z,77.60
2019-02-28T08:08:16.397Z,75.00
2019-02-28T08:09:16.284Z,79.70
2019-02-28T08:10:16.793Z,78.70
2019-02-28T08:11:16.271Z,78.00
2019-02-28T08:12:16.291Z,74.50
2019-02-28T08:13:16.288Z,81.10
2019-02-28T08:14:16.323Z,77.90
2019-02-28T08:15:21.111Z,76.10
2019-02-28T08:16:16.662Z,76.10
2019-02-28T08:17:16.390Z,77.40
2019-02-28T08:18:18.897Z,74.40
2019-02-28T08:19:16.422Z,75.70
2019-02-28T08:20:16.408Z,76.90
2019-02-28T08:21:17.072Z,73.70
2019-02-28T08:22:16.538Z,74.10
2019-02-28T08:23:16.687Z,80.70
2019-02-28T08:24:16.435Z,76.30
2019-02-28T08:25:18.893Z,79.60
2019-02-28T08:26:18.800Z,76.70
2019-02-28T08:27:16.469Z,77.10
2019-02-28T08:28:16.555Z,76.70
2019-02-28T08:29:16.691Z,80.40
2019-02-28T08:30:19.480Z,78.00
2019-02-28T08:31:16.499Z,79.80
2019-02-28T08:32:16.511Z,77.70
2019-02-28T08:33:17.154Z,79.70
2019-02-28T08:34:16.539Z,76.90
2019-02-28T08:35:16.539Z,72.80
2019-02-28T08:36:16.569Z,70.30
2019-02-28T08:37:18.938Z,77.10
2019-02-28T08:38:16.572Z,71.10
2019-02-28T08:39:16.596Z,77.10
2019-02-28T08:40:16.615Z,76.30
2019-02-28T08:41:16.612Z,74.10
2019-02-28T08:42:16.625Z,76.40
2019-02-28T08:43:26.640Z,79.50
2019-02-28T08:44:22.693Z,73.30
2019-02-28T08:45:16.670Z,75.80
2019-02-28T08:46:16.677Z,74.60
2019-02-28T08:47:17.824Z,71.60
2019-02-28T08:48:16.697Z,73.30
2019-02-28T08:49:16.712Z,76.10
2019-02-28T08:50:20.554Z,74.70
2019-02-28T08:51:16.739Z,77.50
2019-02-28T08:52:16.750Z,73.00
2019-02-28T08:53:16.759Z,73.00
2019-02-28T08:54:16.833Z,68.60
2019-02-28T08:55:16.786Z,73.20
2019-02-28T08:56:16.796Z,76.90
2019-02-28T08:57:16.816Z,73.60
2019-02-28T08:58:16.823Z,73.40
2019-02-28T08:59:20.510Z,70.40
2019-02-28T09:00:16.862Z,79.00
2019-02-28T09:01:16.880Z,74.90
2019-02-28T09:02:18.126Z,76.30
2019-02-28T09:03:16.886Z,73.00
2019-02-28T09:04:16.899Z,69.50
2019-02-28T09:05:16.908Z,73.00
2019-02-28T09:06:16.915Z,73.20
2019-02-28T09:07:16.933Z,76.10
2019-02-28T09:08:16.943Z,70.30
2019-02-28T09:09:16.953Z,73.40
2019-02-28T09:10:16.975Z,72.40
2019-02-28T09:11:20.772Z,72.60
2019-02-28T09:12:16.993Z,69.50
2019-02-28T09:13:17.006Z,74.30
2019-02-28T09:14:17.988Z,74.00
2019-02-28T09:15:17.031Z,71.30
2019-02-28T09:16:17.044Z,75.10
2019-02-28T09:17:18.546Z,69.60
2019-02-28T09:18:17.065Z,70.70
2019-02-28T09:19:17.076Z,72.40
2019-02-28T09:20:17.100Z,73.40
2019-02-28T09:21:18.407Z,77.30
2019-02-28T09:22:17.136Z,70.40
2019-02-28T09:23:17.519Z,68.80
2019-02-28T09:24:17.150Z,71.20
2019-02-28T09:25:21.400Z,79.10
2019-02-28T09:26:17.195Z,75.30
2019-02-28T09:27:17.178Z,75.30
2019-02-28T09:28:17.191Z,74.00
2019-02-28T09:29:18.391Z,70.90
2019-02-28T09:30:17.215Z,70.80
2019-02-28T09:31:17.226Z,71.60
2019-02-28T09:32:17.616Z,72.00
2019-02-28T09:33:19.247Z,75.00
2019-02-28T09:34:17.317Z,70.30
2019-02-28T09:35:17.277Z,72.90
2019-02-28T09:36:20.670Z,67.10
2019-02-28T09:37:17.307Z,74.20
2019-02-28T09:38:17.326Z,69.00
2019-02-28T09:39:19.430Z,73.40
2019-02-28T09:40:17.350Z,74.20
2019-02-28T09:41:19.042Z,73.20
2019-02-28T09:42:17.369Z,72.00
2019-02-28T09:43:17.377Z,72.10
2019-02-28T09:44:17.391Z,69.00
2019-02-28T09:45:17.407Z,73.80
2019-02-28T09:46:18.819Z,72.30
2019-02-28T09:47:17.422Z,73.50
2019-02-28T09:48:17.447Z,72.40
2019-02-28T09:49:18.330Z,75.60
2019-02-28T09:50:19.364Z,71.90
2019-02-28T09:51:17.601Z,69.60
2019-02-28T09:52:17.504Z,68.80
2019-02-28T09:53:17.509Z,70.90
2019-02-28T09:54:17.518Z,68.00
2019-02-28T09:55:17.526Z,71.70
2019-02-28T09:56:19.435Z,68.40
2019-02-28T09:57:18.892Z,73.30
2019-02-28T09:58:17.574Z,74.10
2019-02-28T09:59:17.588Z,74.40
2019-02-28T10:00:17.595Z,72.00
2019-02-28T10:01:17.617Z,70.40
2019-02-28T10:02:17.610Z,72.90
2019-02-28T10:03:18.550Z,71.30
2019-02-28T10:04:17.648Z,72.90
2019-02-28T10:05:17.649Z,70.30
2019-02-28T10:06:17.669Z,75.10
2019-02-28T10:07:17.679Z,72.20
2019-02-28T10:08:17.686Z,74.60
2019-02-28T10:09:17.806Z,76.60
2019-02-28T10:10:21.014Z,69.50
2019-02-28T10:11:18.792Z,83.00
2019-02-28T10:12:17.739Z,76.50
2019-02-28T10:13:18.535Z,72.20
2019-02-28T10:14:18.160Z,75.20
2019-02-28T10:15:17.784Z,70.40
2019-02-28T10:16:17.798Z,75.80
2019-02-28T10:17:17.828Z,74.00
2019-02-28T10:18:17.816Z,75.80
2019-02-28T10:19:17.844Z,73.70
2019-02-28T10:20:17.861Z,72.90
2019-02-28T10:21:17.877Z,74.10
2019-02-28T10:22:17.889Z,77.00
2019-02-28T10:23:18.493Z,71.80
2019-02-28T10:24:17.923Z,73.10
2019-02-28T10:25:17.949Z,76.30
2019-02-28T10:26:17.975Z,73.30
2019-02-28T10:27:17.947Z,73.50
2019-02-28T10:28:17.964Z,74.10
2019-02-28T10:29:17.967Z,75.20
2019-02-28T10:30:17.989Z,80.10
2019-02-28T10:31:18.242Z,76.20
2019-02-28T10:32:18.005Z,73.00
2019-02-28T10:33:18.148Z,75.60
2019-02-28T10:34:18.037Z,72.50
2019-02-28T10:35:18.564Z,75.90
2019-02-28T10:36:18.059Z,74.30
2019-02-28T10:37:19.293Z,74.70
2019-02-28T10:38:18.135Z,76.10
2019-02-28T10:39:18.126Z,76.20
2019-02-28T10:40:18.723Z,78.70
2019-02-28T10:41:18.160Z,72.00
2019-02-28T10:42:18.146Z,73.80
2019-02-28T10:43:18.153Z,76.00
2019-02-28T10:44:19.196Z,74.80
2019-02-28T10:45:18.182Z,76.30
2019-02-28T10:46:20.247Z,75.10
2019-02-28T10:47:18.207Z,71.70
2019-02-28T10:48:18.228Z,73.40
2019-02-28T10:49:21.054Z,70.60
2019-02-28T10:50:18.268Z,70.80
2019-02-28T10:51:18.832Z,73.30
2019-02-28T10:52:18.277Z,70.90
2019-02-28T10:53:18.291Z,76.60
2019-02-28T10:54:18.303Z,70.70
2019-02-28T10:55:19.374Z,75.00
2019-02-28T10:57:18.351Z,74.30
2019-02-28T10:58:18.472Z,71.20
2019-02-28T10:59:21.341Z,75.80
2019-02-28T11:00:20.193Z,72.20
2019-02-28T11:01:18.414Z,74.80
2019-02-28T11:02:19.747Z,72.50
2019-02-28T11:03:18.424Z,75.50
2019-02-28T11:04:18.549Z,72.20
2019-02-28T11:05:19.562Z,72.70
2019-02-28T11:06:18.464Z,72.00
2019-02-28T11:07:18.480Z,72.80
2019-02-28T11:08:19.259Z,73.80
2019-02-28T11:09:21.729Z,72.70
2019-02-28T11:10:18.543Z,73.30
2019-02-28T11:11:18.537Z,74.50
2019-02-28T11:12:20.302Z,76.30
2019-02-28T11:13:18.564Z,75.60
2019-02-28T11:14:18.580Z,71.50
2019-02-28T11:15:18.598Z,72.50
2019-02-28T11:16:20.459Z,72.10
2019-02-28T11:17:18.643Z,73.00
2019-02-28T11:18:18.928Z,73.10
2019-02-28T11:19:19.544Z,75.80
2019-02-28T11:20:22.053Z,74.30
2019-02-28T11:21:18.673Z,72.90
2019-02-28T11:22:18.680Z,80.30
2019-02-28T11:23:18.696Z,78.80
2019-02-28T11:24:20.661Z,78.40
2019-02-28T11:25:18.733Z,76.90
2019-02-28T11:26:18.751Z,78.70
2019-02-28T11:27:19.683Z,76.40
2019-02-28T11:28:18.783Z,76.20
2019-02-28T11:29:18.795Z,76.40
2019-02-28T11:30:18.799Z,76.70
2019-02-28T11:31:19.165Z,74.40
2019-02-28T11:32:18.887Z,70.20
2019-02-28T11:33:18.851Z,73.60
2019-02-28T11:34:18.879Z,67.80
2019-02-28T11:35:20.178Z,73.90
2019-02-28T11:36:18.880Z,71.60
2019-02-28T11:37:18.898Z,71.00
2019-02-28T11:38:21.455Z,74.60
2019-02-28T11:39:18.918Z,72.30
2019-02-28T11:40:18.934Z,71.60
2019-02-28T11:41:19.670Z,72.30
2019-02-28T11:42:18.962Z,72.40
2019-02-28T11:43:18.995Z,75.30
2019-02-28T11:44:19.202Z,70.60
2019-02-28T11:45:21.937Z,72.90
2019-02-28T11:46:19.015Z,74.10
2019-02-28T11:47:19.028Z,78.00
2019-02-28T11:48:20.247Z,76.10
2019-02-28T11:49:19.073Z,71.60
2019-02-28T11:50:19.069Z,72.50
2019-02-28T11:51:19.087Z,74.90
2019-02-28T11:52:19.103Z,71.60
2019-02-28T11:53:19.322Z,71.90
2019-02-28T11:54:19.131Z,75.70
2019-02-28T11:55:20.321Z,71.30
2019-02-28T11:56:19.153Z,70.40
2019-02-28T11:57:20.606Z,72.00
2019-02-28T11:58:19.182Z,73.70
2019-02-28T11:59:19.198Z,73.00
2019-02-28T12:00:19.210Z,68.90
2019-02-28T12:01:19.252Z,69.00
2019-02-28T12:02:20.242Z,73.60
2019-02-28T12:03:19.345Z,72.10
2019-02-28T12:04:19.287Z,71.80
2019-02-28T12:05:19.291Z,69.60
2019-02-28T12:06:19.298Z,72.30
2019-02-28T12:07:19.330Z,72.60
2019-02-28T12:08:19.526Z,70.30
2019-02-28T12:09:20.048Z,74.40
2019-02-28T12:10:19.363Z,70.80
2019-02-28T12:11:19.372Z,74.20
2019-02-28T12:12:19.383Z,74.60
2019-02-28T12:13:20.469Z,73.00
2019-02-28T12:14:19.436Z,72.00
2019-02-28T12:15:19.443Z,68.00
2019-02-28T12:16:20.310Z,69.30
2019-02-28T12:17:19.454Z,69.60
2019-02-28T12:18:19.462Z,70.70
2019-02-28T12:19:19.475Z,73.60
2019-02-28T12:20:26.127Z,73.00
2019-02-28T12:22:19.513Z,73.90
2019-02-28T12:23:23.150Z,73.60
2019-02-28T12:24:19.555Z,74.90
2019-02-28T12:25:19.608Z,70.60
2019-02-28T12:26:21.051Z,71.60
2019-02-28T12:27:19.978Z,73.30
2019-02-28T12:28:19.641Z,68.90
2019-02-28T12:29:19.648Z,75.20
2019-02-28T12:30:21.936Z,72.70
2019-02-28T12:31:19.655Z,73.80
2019-02-28T12:32:19.670Z,75.60
2019-02-28T12:33:23.162Z,74.30
2019-02-28T12:34:19.695Z,71.50
2019-02-28T12:35:19.696Z,71.10
2019-02-28T12:36:19.745Z,71.60
2019-02-28T12:37:22.049Z,68.50
2019-02-28T12:38:19.738Z,65.70
2019-02-28T12:39:19.770Z,71.80
2019-02-28T12:40:19.800Z,71.60
2019-02-28T12:41:21.677Z,69.10
2019-02-28T12:42:19.798Z,74.00
2019-02-28T12:43:19.819Z,71.30
2019-02-28T12:44:19.841Z,71.70
2019-02-28T12:45:21.213Z,68.80
2019-02-28T12:46:19.876Z,70.20
2019-02-28T12:47:19.868Z,67.80
2019-02-28T12:48:19.919Z,71.00
2019-02-28T12:49:22.212Z,68.10
2019-02-28T12:50:19.915Z,71.80
2019-02-28T12:51:19.942Z,68.70
2019-02-28T12:53:24.251Z,68.60
2019-02-28T12:54:20.134Z,72.40
2019-02-28T12:55:19.998Z,67.30